createdAt,value
2022-10-24T00:01:33.611Z,12.22
2022-10-24T00:04:02.837Z,12.31
2022-10-24T00:06:30.680Z,12.24
2022-10-24T00:08:58.453Z,12.25
2022-10-24T00:11:28.827Z,12.33
2022-10-24T00:13:57.822Z,12.26
2022-10-24T00:16:25.419Z,12.16
2022-10-24T00:18:53.354Z,12.51
2022-10-24T00:21:22.661Z,12.50
2022-10-24T00:23:50.503Z,12.73
2022-10-24T00:26:18.144Z,12.56
2022-10-24T00:28:45.889Z,12.52
2022-10-24T00:31:15.939Z,12.81
2022-10-24T00:33:44.346Z,12.45
2022-10-24T00:36:12.914Z,12.55
2022-10-24T00:38:41.897Z,12.74
2022-10-24T00:41:09.764Z,13.17
2022-10-24T00:43:37.503Z,13.12
2022-10-24T00:46:05.355Z,13.24
2022-10-24T00:48:35.827Z,13.20
2022-10-24T00:51:06.743Z,13.18
2022-10-24T00:53:36.996Z,12.97
2022-10-24T00:56:07.254Z,12.87
2022-10-24T00:58:36.253Z,12.97
2022-10-24T01:01:04.969Z,12.88
2022-10-24T01:03:33.142Z,12.86
2022-10-24T01:06:19.215Z,12.75
2022-10-24T01:08:49.890Z,12.70
2022-10-24T01:11:31.964Z,12.54
2022-10-24T01:14:07.582Z,12.62
2022-10-24T01:16:39.457Z,12.93
2022-10-24T01:19:15.624Z,12.80
2022-10-24T01:21:45.637Z,12.73
2022-10-24T01:24:37.139Z,12.85
2022-10-24T01:27:35.591Z,12.82
2022-10-24T01:30:14.748Z,12.86
2022-10-24T01:32:46.929Z,12.78
2022-10-24T01:38:03.767Z,12.74
2022-10-24T01:40:35.118Z,12.81
2022-10-24T01:43:06.423Z,12.92
2022-10-24T01:45:37.375Z,12.85
2022-10-24T01:48:07.331Z,12.88
2022-10-24T01:50:36.576Z,12.69
2022-10-24T01:53:05.290Z,12.86
2022-10-24T01:55:33.504Z,12.80
2022-10-24T01:58:01.856Z,12.80
2022-10-24T02:00:29.526Z,12.86
2022-10-24T02:03:01.358Z,13.05
2022-10-24T02:05:33.141Z,13.06
2022-10-24T02:08:04.068Z,13.18
2022-10-24T02:10:35.937Z,13.14
2022-10-24T02:13:07.352Z,13.11
2022-10-24T02:15:37.868Z,13.18
2022-10-24T02:18:07.615Z,13.50
2022-10-24T02:20:36.981Z,13.21
2022-10-24T02:23:08.045Z,13.24
2022-10-24T02:25:38.647Z,13.18
2022-10-24T02:28:08.731Z,12.98
2022-10-24T02:30:39.235Z,13.02
2022-10-24T02:33:09.060Z,13.18
2022-10-24T02:35:37.606Z,13.17
2022-10-24T02:38:10.794Z,12.95
2022-10-24T02:40:38.856Z,12.96
2022-10-24T02:43:07.621Z,13.03
2022-10-24T02:45:37.052Z,12.83
2022-10-24T02:48:09.612Z,12.68
2022-10-24T02:50:39.013Z,12.69
2022-10-24T02:53:06.871Z,12.99
2022-10-24T02:55:34.680Z,12.78
2022-10-24T02:58:02.434Z,12.96
2022-10-24T03:00:30.196Z,12.84
2022-10-24T03:02:57.952Z,12.96
2022-10-24T03:05:27.243Z,12.98
2022-10-24T03:07:54.824Z,13.00
2022-10-24T03:10:22.679Z,13.16
2022-10-24T03:12:50.247Z,13.15
2022-10-24T03:15:17.901Z,13.18
2022-10-24T03:17:48.999Z,13.08
2022-10-24T03:20:16.826Z,13.38
2022-10-24T03:22:45.969Z,13.28
2022-10-24T03:25:13.676Z,13.31
2022-10-24T03:27:41.528Z,13.37
2022-10-24T03:30:10.453Z,13.21
2022-10-24T03:32:37.960Z,13.29
2022-10-24T03:35:09.202Z,13.44
2022-10-24T03:37:39.666Z,13.61
2022-10-24T03:40:11.033Z,13.54
2022-10-24T03:42:38.951Z,13.47
2022-10-24T03:45:07.853Z,13.34
2022-10-24T03:47:37.602Z,13.36
2022-10-24T03:50:06.251Z,13.52
2022-10-24T03:52:33.866Z,13.58
2022-10-24T03:55:01.458Z,13.54
2022-10-24T03:57:30.638Z,13.64
2022-10-24T03:59:58.361Z,13.70
2022-10-24T04:02:26.694Z,13.82
2022-10-24T04:04:54.386Z,13.67
2022-10-24T04:07:22.149Z,13.87
2022-10-24T04:09:50.775Z,13.71
2022-10-24T04:12:18.321Z,14.02
2022-10-24T04:14:47.440Z,14.04
2022-10-24T04:17:14.944Z,13.99
2022-10-24T04:19:42.897Z,13.98
2022-10-24T04:22:10.759Z,13.66
2022-10-24T04:24:39.599Z,13.87
2022-10-24T04:27:08.449Z,13.98
2022-10-24T04:29:36.384Z,13.90
2022-10-24T04:32:05.762Z,13.86
2022-10-24T04:34:36.970Z,14.12
2022-10-24T04:37:04.876Z,13.95
2022-10-24T04:39:32.689Z,14.13
2022-10-24T04:42:00.759Z,14.03
2022-10-24T04:44:28.524Z,13.96
2022-10-24T04:46:56.277Z,13.78
2022-10-24T04:49:25.192Z,13.63
2022-10-24T04:51:52.891Z,13.80
2022-10-24T04:54:20.652Z,13.62
2022-10-24T04:56:48.344Z,13.99
2022-10-24T04:59:16.079Z,13.55
2022-10-24T05:01:44.064Z,13.63
2022-10-24T05:04:12.573Z,13.75
2022-10-24T05:06:44.206Z,13.80
2022-10-24T05:09:12.958Z,13.85
2022-10-24T05:11:40.694Z,14.10
2022-10-24T05:14:08.470Z,13.99
2022-10-24T05:16:36.118Z,14.10
2022-10-24T05:19:03.724Z,14.23
2022-10-24T05:21:31.484Z,13.94
2022-10-24T05:24:00.693Z,13.89
2022-10-24T05:26:28.539Z,13.95
2022-10-24T05:28:56.123Z,13.72
2022-10-24T05:31:24.599Z,13.84
2022-10-24T05:33:52.236Z,13.85
2022-10-24T05:36:20.119Z,13.96
2022-10-24T05:38:47.840Z,14.02
2022-10-24T05:41:17.052Z,13.77
2022-10-24T05:43:44.604Z,13.86
2022-10-24T05:46:12.382Z,14.09
2022-10-24T05:48:40.633Z,14.21
2022-10-24T05:51:09.039Z,14.10
2022-10-24T05:53:36.782Z,14.09
2022-10-24T05:56:05.988Z,14.32
2022-10-24T05:58:35.323Z,14.35
2022-10-24T06:01:03.335Z,14.06
2022-10-24T06:03:31.072Z,14.17
2022-10-24T06:05:58.833Z,14.04
2022-10-24T06:08:26.498Z,14.33
2022-10-24T06:10:54.257Z,14.51
2022-10-24T06:13:21.893Z,14.38
2022-10-24T06:15:50.904Z,14.20
2022-10-24T06:18:18.675Z,14.26
2022-10-24T06:20:46.378Z,13.96
2022-10-24T06:23:14.280Z,14.15
2022-10-24T06:25:42.762Z,13.84
2022-10-24T06:28:12.738Z,14.01
2022-10-24T06:30:41.166Z,14.12
2022-10-24T06:33:10.096Z,14.10
2022-10-24T06:35:37.886Z,14.30
2022-10-24T06:38:05.501Z,14.30
2022-10-24T06:40:33.688Z,14.15
2022-10-24T06:43:01.213Z,14.43
2022-10-24T06:45:29.070Z,14.14
2022-10-24T06:47:57.165Z,14.52
2022-10-24T06:50:26.377Z,14.43
2022-10-24T06:52:54.003Z,14.35
2022-10-24T06:55:21.658Z,14.12
2022-10-24T06:57:49.298Z,14.34
2022-10-24T07:00:17.678Z,14.45
2022-10-24T07:02:45.594Z,14.70
2022-10-24T07:05:14.645Z,14.41
2022-10-24T07:07:44.515Z,14.77
2022-10-24T07:10:14.508Z,14.51
2022-10-24T07:12:43.560Z,14.93
2022-10-24T07:15:12.206Z,15.06
2022-10-24T07:17:40.803Z,14.99
2022-10-24T07:20:09.265Z,14.84
2022-10-24T07:22:37.441Z,14.80
2022-10-24T07:25:08.241Z,14.90
2022-10-24T07:27:36.149Z,14.93
2022-10-24T07:30:05.710Z,14.97
2022-10-24T07:32:33.921Z,14.73
2022-10-24T07:35:01.628Z,14.92
2022-10-24T07:37:29.594Z,14.80
2022-10-24T07:39:57.373Z,14.92
2022-10-24T07:42:26.495Z,14.83
2022-10-24T07:44:54.400Z,14.87
2022-10-24T07:47:22.143Z,15.12
2022-10-24T07:49:49.828Z,15.05
2022-10-24T07:52:17.756Z,15.02
2022-10-24T07:54:45.491Z,14.95
2022-10-24T07:57:13.539Z,15.11
2022-10-24T07:59:42.980Z,15.13
2022-10-24T08:02:11.952Z,14.96
2022-10-24T08:04:39.600Z,15.03
2022-10-24T08:07:11.715Z,15.09
2022-10-24T08:09:39.466Z,15.19
2022-10-24T08:12:07.604Z,15.26
2022-10-24T08:14:35.167Z,15.40
2022-10-24T08:17:04.579Z,15.33
2022-10-24T08:19:32.616Z,15.51
2022-10-24T08:22:00.953Z,15.53
2022-10-24T08:24:28.993Z,15.43
2022-10-24T08:26:56.758Z,15.63
2022-10-24T08:29:25.195Z,15.68
2022-10-24T08:31:54.737Z,15.73
2022-10-24T08:34:24.518Z,15.82
2022-10-24T08:36:52.254Z,16.04
2022-10-24T08:39:20.337Z,16.28
2022-10-24T08:41:51.390Z,16.45
2022-10-24T08:44:22.604Z,16.57
2022-10-24T08:46:54.083Z,16.49
2022-10-24T08:49:29.789Z,16.61
2022-10-24T08:52:00.378Z,16.59
2022-10-24T08:54:30.688Z,16.70
2022-10-24T08:56:59.965Z,16.66
2022-10-24T08:59:30.319Z,16.64
2022-10-24T09:02:04.119Z,16.69
2022-10-24T09:04:37.891Z,16.74
2022-10-24T09:07:06.452Z,16.76
2022-10-24T09:09:37.769Z,16.80
2022-10-24T09:12:09.903Z,16.71
2022-10-24T09:14:38.860Z,16.86
2022-10-24T09:17:13.851Z,16.94
2022-10-24T09:19:45.694Z,17.03
2022-10-24T09:22:13.722Z,17.01
2022-10-24T09:24:45.383Z,17.00
2022-10-24T09:27:16.285Z,17.05
2022-10-24T09:29:44.830Z,17.00
2022-10-24T09:32:17.889Z,17.02
2022-10-24T09:34:47.543Z,17.07
2022-10-24T09:37:42.521Z,17.17
2022-10-24T09:40:22.320Z,17.29
2022-10-24T09:42:58.945Z,17.53
2022-10-24T09:45:40.667Z,17.55
2022-10-24T09:48:19.340Z,17.60
2022-10-24T09:50:50.156Z,17.73
2022-10-24T09:53:27.238Z,17.65
2022-10-24T09:55:58.456Z,17.68
2022-10-24T09:58:32.917Z,17.63
2022-10-24T10:01:06.723Z,17.66
2022-10-24T10:03:35.578Z,17.58
2022-10-24T10:06:09.646Z,17.56
2022-10-24T10:08:38.851Z,17.53
2022-10-24T10:11:08.259Z,17.40
2022-10-24T10:13:41.093Z,17.36
2022-10-24T10:16:12.708Z,17.27
2022-10-24T10:18:46.549Z,17.43
2022-10-24T10:21:16.993Z,17.58
2022-10-24T10:23:46.142Z,17.66
2022-10-24T10:26:17.079Z,17.57
2022-10-24T10:28:49.244Z,17.44
2022-10-24T10:31:18.532Z,17.55
2022-10-24T10:33:53.223Z,17.78
2022-10-24T10:36:30.933Z,18.12
2022-10-24T10:39:14.119Z,18.38
2022-10-24T10:41:46.996Z,18.32
2022-10-24T10:44:25.854Z,18.44
2022-10-24T10:46:59.698Z,18.60
2022-10-24T10:49:30.492Z,18.57
2022-10-24T10:52:05.314Z,18.33
2022-10-24T10:54:50.441Z,18.48
2022-10-24T10:57:21.260Z,18.41
2022-10-24T10:59:53.714Z,18.40
2022-10-24T11:02:38.865Z,18.30
2022-10-24T11:05:17.675Z,18.00
2022-10-24T11:07:52.259Z,18.08
2022-10-24T11:10:22.493Z,17.90
2022-10-24T11:12:50.054Z,17.86
2022-10-24T11:15:22.383Z,17.74
2022-10-24T11:17:54.255Z,17.79
2022-10-24T11:20:26.429Z,17.82
2022-10-24T11:22:59.304Z,17.89
2022-10-24T11:25:31.387Z,17.93
2022-10-24T11:28:04.296Z,18.10
2022-10-24T11:30:42.367Z,18.12
2022-10-24T11:33:15.903Z,18.15
2022-10-24T11:35:52.615Z,18.59
2022-10-24T11:38:22.885Z,18.61
2022-10-24T11:40:58.717Z,18.51
2022-10-24T11:43:29.958Z,18.18
2022-10-24T11:46:01.344Z,18.40
2022-10-24T11:48:36.351Z,18.74
2022-10-24T11:51:11.115Z,18.91
2022-10-24T11:53:52.299Z,18.75
2022-10-24T11:56:27.368Z,18.66
2022-10-24T11:58:58.367Z,18.59
2022-10-24T12:01:49.015Z,18.61
2022-10-24T12:04:27.995Z,18.50
2022-10-24T12:07:36.024Z,18.60
2022-10-24T12:10:21.108Z,18.33
2022-10-24T12:13:06.630Z,18.21
2022-10-24T12:15:45.884Z,18.20
2022-10-24T12:18:27.088Z,18.32
2022-10-24T12:20:55.619Z,18.45
2022-10-24T12:23:27.437Z,18.51
2022-10-24T12:26:18.629Z,18.55
2022-10-24T12:28:54.807Z,18.59
2022-10-24T12:31:27.105Z,18.53
2022-10-24T12:34:49.180Z,18.98
2022-10-24T12:37:34.098Z,18.89
2022-10-24T12:40:40.245Z,19.23
2022-10-24T12:43:18.353Z,19.31
2022-10-24T12:45:46.000Z,19.50
2022-10-24T12:48:30.357Z,19.10
2022-10-24T12:51:00.702Z,18.85
2022-10-24T12:54:02.597Z,18.64
2022-10-24T12:56:31.510Z,18.50
2022-10-24T12:59:26.347Z,18.56
2022-10-24T13:02:35.194Z,18.51
2022-10-24T13:05:17.350Z,18.25
2022-10-24T13:08:06.268Z,18.15
2022-10-24T13:10:45.585Z,18.35
2022-10-24T13:13:54.886Z,18.61
2022-10-24T13:16:31.564Z,18.99
2022-10-24T13:19:09.286Z,19.32
2022-10-24T13:21:46.868Z,19.19
2022-10-24T13:24:24.600Z,19.00
2022-10-24T13:27:24.102Z,18.73
2022-10-24T13:30:25.248Z,19.95
2022-10-24T13:32:54.002Z,19.62
2022-10-24T13:35:26.194Z,19.81
2022-10-24T13:38:00.646Z,20.19
2022-10-24T13:40:32.555Z,20.82
2022-10-24T13:43:07.643Z,21.45
2022-10-24T13:45:43.305Z,21.07
2022-10-24T13:48:16.385Z,21.10
2022-10-24T13:50:49.494Z,20.55
2022-10-24T13:53:28.221Z,21.63
2022-10-24T13:56:00.407Z,19.95
2022-10-24T13:58:31.587Z,19.10
2022-10-24T14:01:04.508Z,19.49
2022-10-24T14:03:34.320Z,18.94
2022-10-24T14:06:03.398Z,18.61
2022-10-24T14:08:32.702Z,18.25
2022-10-24T14:11:01.967Z,17.98
2022-10-24T14:13:33.159Z,18.60
2022-10-24T14:16:02.279Z,19.31
2022-10-24T14:18:30.070Z,18.18
2022-10-24T14:21:00.541Z,17.87
2022-10-24T14:23:31.080Z,17.76
2022-10-24T14:26:01.821Z,18.39
2022-10-24T14:28:34.483Z,17.99
2022-10-24T14:31:03.687Z,17.80
2022-10-24T14:33:32.360Z,17.67
2022-10-24T14:36:01.450Z,17.72
2022-10-24T14:38:29.730Z,17.52
2022-10-24T14:41:08.273Z,17.51
2022-10-24T14:43:44.061Z,17.28
2022-10-24T14:46:30.868Z,17.21
2022-10-24T14:49:02.912Z,16.92
2022-10-24T14:51:38.606Z,16.86
2022-10-24T14:54:17.225Z,16.91
2022-10-24T14:56:44.842Z,16.93
2022-10-24T14:59:23.432Z,17.05
2022-10-24T15:01:59.309Z,17.74
2022-10-24T15:04:32.383Z,17.87
2022-10-24T15:07:14.125Z,18.10
2022-10-24T15:09:52.802Z,17.68
2022-10-24T15:12:27.242Z,17.27
2022-10-24T15:14:57.267Z,17.15
2022-10-24T15:17:32.442Z,17.06
2022-10-24T15:20:02.597Z,16.92
2022-10-24T15:22:32.254Z,16.86
2022-10-24T15:25:01.384Z,16.65
2022-10-24T15:27:31.368Z,16.59
2022-10-24T15:30:00.447Z,16.49
2022-10-24T15:32:27.979Z,16.38
2022-10-24T15:34:55.983Z,16.13
2022-10-24T15:37:25.260Z,16.09
2022-10-24T15:39:54.417Z,16.19
2022-10-24T15:42:22.796Z,16.18
2022-10-24T15:44:50.526Z,16.28
2022-10-24T15:47:23.717Z,16.33
2022-10-24T15:49:52.092Z,16.35
2022-10-24T15:52:19.624Z,16.20
2022-10-24T15:54:47.242Z,16.16
2022-10-24T15:57:20.813Z,16.05
2022-10-24T15:59:48.353Z,15.89
2022-10-24T16:02:22.115Z,15.83
2022-10-24T16:04:50.482Z,15.93
2022-10-24T16:07:18.025Z,15.93
2022-10-24T16:09:45.646Z,15.83
2022-10-24T16:12:13.548Z,15.65
2022-10-24T16:14:41.226Z,15.72
2022-10-24T16:17:08.789Z,15.54
2022-10-24T16:19:38.081Z,15.50
2022-10-24T16:22:07.842Z,15.61
2022-10-24T16:24:35.447Z,15.37
2022-10-24T16:27:03.145Z,15.40
2022-10-24T16:29:30.848Z,15.25
2022-10-24T16:31:58.351Z,15.19
2022-10-24T16:34:25.948Z,15.23
2022-10-24T16:36:56.048Z,15.28
2022-10-24T16:39:24.193Z,15.17
2022-10-24T16:41:55.294Z,15.09
2022-10-24T16:44:23.065Z,15.13
2022-10-24T16:46:53.760Z,14.90
2022-10-24T16:49:22.370Z,14.87
2022-10-24T16:51:49.974Z,14.81
2022-10-24T16:54:20.484Z,14.66
2022-10-24T16:56:53.378Z,14.54
2022-10-24T16:59:21.983Z,14.58
2022-10-24T17:01:50.175Z,14.16
2022-10-24T17:04:17.812Z,13.79
2022-10-24T17:06:45.550Z,14.05
2022-10-24T17:09:13.632Z,13.86
2022-10-24T17:11:46.505Z,13.81
2022-10-24T17:14:14.923Z,13.83
2022-10-24T17:16:43.519Z,13.58
2022-10-24T17:19:18.318Z,13.74
2022-10-24T17:21:47.867Z,13.80
2022-10-24T17:24:16.806Z,13.42
2022-10-24T17:26:45.885Z,13.48
2022-10-24T17:29:14.423Z,13.48
2022-10-24T17:31:42.387Z,13.49
2022-10-24T17:34:11.244Z,13.55
2022-10-24T17:36:40.757Z,13.41
2022-10-24T17:39:13.290Z,13.26
2022-10-24T17:41:41.604Z,13.47
2022-10-24T17:44:16.705Z,13.43
2022-10-24T17:46:44.904Z,13.55
2022-10-24T17:49:16.457Z,13.56
2022-10-24T17:51:48.243Z,13.51
2022-10-24T17:54:16.463Z,13.44
2022-10-24T17:56:44.341Z,13.31
2022-10-24T17:59:13.629Z,13.44
2022-10-24T18:01:41.473Z,13.19
2022-10-24T18:04:09.133Z,13.14
2022-10-24T18:06:39.466Z,13.22
2022-10-24T18:09:11.902Z,13.40
2022-10-24T18:11:40.037Z,13.22
2022-10-24T18:14:07.963Z,13.44
2022-10-24T18:16:39.078Z,13.41
2022-10-24T18:19:06.976Z,13.31
2022-10-24T18:21:34.933Z,13.63
2022-10-24T18:24:02.866Z,13.63
2022-10-24T18:26:30.469Z,13.50
2022-10-24T18:28:59.606Z,13.41
2022-10-24T18:31:29.417Z,13.59
2022-10-24T18:34:02.466Z,13.69
2022-10-24T18:36:34.177Z,13.47
2022-10-24T18:39:02.343Z,13.53
2022-10-24T18:41:39.710Z,13.55
2022-10-24T18:44:22.111Z,13.46
2022-10-24T18:46:50.794Z,13.42
2022-10-24T18:49:21.030Z,13.38
2022-10-24T18:51:52.557Z,13.40
2022-10-24T18:54:21.843Z,13.39
2022-10-24T18:56:50.048Z,13.36
2022-10-24T18:59:20.460Z,13.22
2022-10-24T19:01:54.228Z,13.38
2022-10-24T19:04:25.909Z,13.58
2022-10-24T19:06:56.367Z,13.53
2022-10-24T19:09:25.820Z,13.43
2022-10-24T19:11:53.710Z,13.34
2022-10-24T19:14:21.789Z,13.15
2022-10-24T19:16:50.888Z,13.31
2022-10-24T19:19:24.538Z,13.35
2022-10-24T19:21:53.749Z,13.37
2022-10-24T19:24:21.800Z,13.29
2022-10-24T19:26:50.109Z,13.34
2022-10-24T19:29:17.682Z,13.36
2022-10-24T19:31:46.009Z,13.36
2022-10-24T19:34:13.701Z,13.34
2022-10-24T19:36:43.358Z,13.54
2022-10-24T19:39:11.156Z,13.45
2022-10-24T19:41:39.514Z,13.58
2022-10-24T19:44:07.544Z,13.46
2022-10-24T19:46:36.038Z,13.38
2022-10-24T19:49:03.664Z,13.29
2022-10-24T19:51:31.565Z,13.34
2022-10-24T19:54:00.664Z,13.43
2022-10-24T19:56:30.964Z,13.53
2022-10-24T19:58:59.600Z,13.50
2022-10-24T20:01:28.853Z,13.42
2022-10-24T20:03:56.826Z,13.13
2022-10-24T20:06:26.477Z,13.14
2022-10-24T20:08:54.215Z,13.18
2022-10-24T20:11:23.911Z,13.10
2022-10-24T20:13:51.588Z,12.98
2022-10-24T20:16:19.835Z,12.98
2022-10-24T20:18:47.643Z,12.99
2022-10-24T20:21:17.610Z,12.93
2022-10-24T20:23:45.831Z,12.83
2022-10-24T20:26:15.687Z,12.71
2022-10-24T20:28:46.123Z,12.81
2022-10-24T20:31:22.111Z,12.50
2022-10-24T20:33:49.992Z,12.45
2022-10-24T20:36:17.682Z,12.74
2022-10-24T20:38:45.379Z,12.91
2022-10-24T20:41:12.974Z,12.87
2022-10-24T20:43:40.659Z,12.85
2022-10-24T20:46:09.961Z,12.98
2022-10-24T20:48:38.023Z,12.92
2022-10-24T20:51:07.304Z,12.91
2022-10-24T20:53:34.949Z,12.98
2022-10-24T20:56:07.364Z,12.97
2022-10-24T20:58:37.529Z,13.00
2022-10-24T21:01:11.741Z,13.05
2022-10-24T21:03:40.435Z,12.99
2022-10-24T21:06:16.578Z,12.99
2022-10-24T21:08:44.686Z,13.02
2022-10-24T21:11:13.884Z,13.05
2022-10-24T21:13:41.414Z,13.03
2022-10-24T21:16:10.951Z,12.98
2022-10-24T21:18:38.900Z,13.01
2022-10-24T21:21:08.093Z,13.00
2022-10-24T21:23:36.055Z,12.90
2022-10-24T21:26:05.251Z,12.89
2022-10-24T21:28:33.031Z,12.93
2022-10-24T21:31:04.873Z,12.93
2022-10-24T21:33:34.252Z,12.96
2022-10-24T21:36:06.153Z,12.99
2022-10-24T21:38:33.869Z,12.93
2022-10-24T21:41:02.301Z,13.08
2022-10-24T21:43:32.325Z,12.95
2022-10-24T21:46:04.767Z,12.88
2022-10-24T21:48:34.054Z,12.93
2022-10-24T21:51:06.449Z,12.80
2022-10-24T21:53:37.280Z,12.83
2022-10-24T21:56:05.648Z,12.78
2022-10-24T21:58:33.618Z,12.74
2022-10-24T22:01:01.333Z,12.62
2022-10-24T22:03:29.302Z,12.61
2022-10-24T22:05:58.894Z,12.62
2022-10-24T22:08:26.438Z,12.34
2022-10-24T22:10:59.240Z,12.56
2022-10-24T22:13:27.516Z,12.49
2022-10-24T22:15:55.670Z,12.50
2022-10-24T22:18:24.027Z,12.44
2022-10-24T22:20:51.737Z,12.62
2022-10-24T22:23:20.963Z,12.49
2022-10-24T22:25:49.303Z,12.42
2022-10-24T22:28:17.307Z,12.38
2022-10-24T22:30:46.776Z,12.58
2022-10-24T22:33:18.833Z,12.63
2022-10-24T22:35:48.756Z,12.68
2022-10-24T22:38:16.745Z,12.58
2022-10-24T22:40:46.501Z,12.63
2022-10-24T22:43:14.968Z,12.64
2022-10-24T22:45:47.167Z,12.77
2022-10-24T22:48:17.094Z,12.73
2022-10-24T22:50:49.937Z,12.80
2022-10-24T22:53:19.892Z,12.77
2022-10-24T22:56:04.480Z,12.64
2022-10-24T22:58:32.611Z,12.67
2022-10-24T23:01:03.011Z,12.68
2022-10-24T23:03:37.563Z,12.74
2022-10-24T23:06:08.924Z,12.67
2022-10-24T23:08:39.789Z,12.74
2022-10-24T23:11:10.716Z,12.80
2022-10-24T23:13:38.990Z,12.87
2022-10-24T23:16:10.801Z,12.92
2022-10-24T23:18:38.791Z,12.93
2022-10-24T23:21:12.714Z,13.03
2022-10-24T23:23:40.804Z,12.96
2022-10-24T23:26:14.011Z,13.07
2022-10-24T23:28:47.551Z,13.02
2022-10-24T23:31:15.611Z,13.04
2022-10-24T23:33:43.820Z,13.05
2022-10-24T23:36:18.525Z,12.98
2022-10-24T23:38:47.431Z,12.97
2022-10-24T23:41:17.087Z,13.16
2022-10-24T23:43:45.063Z,13.05
2022-10-24T23:46:19.552Z,13.10
2022-10-24T23:48:54.562Z,13.07
2022-10-24T23:51:25.525Z,13.07
2022-10-24T23:53:55.126Z,13.02
2022-10-24T23:56:26.764Z,12.95
2022-10-24T23:58:54.439Z,12.77
